Wednesday, August 15, 2018, 4:41 AM EDT
Back to Local

KRKD, Rockland, Knox County Regional Airport

Location: Owls Head, ME, United States Lat: 44.067
Local Time: 4:41 AM EDT ( 8:41 GMT) Lon: -69.1
Time Zone: US/Eastern Elev: 55 ft

Show me the last for .
Show Coded

Time T Td Feel RH Dir Speed Gust Alt SLP Vis Weather Sky Remarks
2018-08-15 04:24 66 66 - 100 - Calm - 29.80 - 0 BR OVC002 None
2018-08-15 03:56 66 66 - 100 120° 3 - 29.81 29.81 0 FG OVC002 None
2018-08-15 03:19 66 66 - 100 100° 3 - 29.82 - 0 FG OVC002 None
2018-08-15 02:56 67 67 - 100 60° 3 - 29.82 29.83 0 FG OVC002 None
2018-08-15 01:56 67 67 - 100 - Calm - 29.84 29.84 0 FG OVC002 1-hr Precip Total: Trace
6-hr Precip Total (2am): 0.03"
6-hr Min Temp (2am): 64.9°F
6-hr Max Temp (2am): 66.9°F
2018-08-15 00:56 67 67 - 100 - Calm - 29.85 29.85 0 -RA FG OVC002 1-hr Precip Total: 0.01"
24-hr Min Temp (1am): 64.0°F
24-hr Max Temp (1am): 68.0°F
2018-08-14 23:56 66 66 - 100 - Calm - 29.85 29.86 0 FG OVC002 1-hr Precip Total: 0.01"
2018-08-14 23:53 66 66 - 100 80° 3 - 29.85 - 0 FG OVC002 1-hr Precip Total: 0.01"
2018-08-14 23:23 66 66 - 100 - Calm - 29.86 - 0 BR OVC002 1-hr Precip Total: 0.01"
2018-08-14 23:11 66 66 - 100 60° 3 - 29.86 - 1 BR OVC002 1-hr Precip Total: 0.01"
2018-08-14 22:56 66 66 - 100 - Calm - 29.87 29.87 0 -RA BR OVC002 1-hr Precip Total: Trace
6-hr Precip Total (11pm): 0.01"
2018-08-14 22:20 66 66 - 100 - Calm - 29.87 - 0 BR OVC002 None
2018-08-14 21:56 67 67 - 100 - Calm - 29.87 29.87 1 BR OVC002 1-hr Precip Total: 0.01"
2018-08-14 21:47 66 66 - 100 - Calm - 29.87 - 0 BR OVC002 1-hr Precip Total: 0.01"
2018-08-14 21:31 66 66 - 100 - Calm - 29.87 - 1 BR OVC002 1-hr Precip Total: 0.01"
2018-08-14 20:56 66 66 - 100 - Calm - 29.88 29.88 0 BR OVC002 None
2018-08-14 20:34 64 64 - 100 - Calm - 29.87 - 0 FG OVC002 None
2018-08-14 19:56 64 64 - 100 90° 3 - 29.86 29.87 0 BR OVC002 6-hr Min Temp (8pm): 64.0°F
6-hr Max Temp (8pm): 68.0°F
2018-08-14 19:28 64 64 - 100 - Calm - 29.87 - 0 BR OVC002 None
2018-08-14 18:56 65 65 - 100 - Calm - 29.87 29.87 0 FG OVC002 None
2018-08-14 18:49 64 64 - 100 100° 3 - 29.87 - 0 BR OVC002 None
2018-08-14 18:41 64 64 - 100 100° 5 - 29.87 - 1 BR OVC002 None
2018-08-14 18:33 64 64 - 100 110° 5 - 29.87 - 3 BR OVC002 None
2018-08-14 18:26 64 64 - 100 100° 5 - 29.87 - 1 BR OVC002 Variable visibility
2018-08-14 18:11 64 64 - 100 110° 3 - 29.88 - 0 BR OVC002 Variable visibility
2018-08-14 18:05 66 64 - 93 110° 5 - 29.88 - 1 BR OVC002 Variable visibility
2018-08-14 17:56 66 66 - 100 90° 3 - 29.88 29.88 6 BR OVC002 None
2018-08-14 17:43 66 66 - 100 - Calm - 29.88 - 3 BR OVC002 None
2018-08-14 17:31 66 66 - 100 100° 3 - 29.88 - 1 BR OVC002 Variable visibility
2018-08-14 17:16 66 66 - 100 - Calm - 29.88 - 3 BR OVC002 None
2018-08-14 16:56 66 66 - 100 90° 3 - 29.89 29.89 1 BR OVC002 Variable visibility
2018-08-14 16:48 66 66 - 100 110° 3 - 29.89 - 1 BR OVC002 Variable visibility
2018-08-14 16:37 66 66 - 100 90° 3 - 29.89 - 3 BR OVC002 None
2018-08-14 16:19 66 66 - 100 110° 3 - 29.89 - 1 BR OVC002 Variable visibility
2018-08-14 15:56 67 67 - 100 90° 3 - 29.89 29.89 0 BR OVC002 None
2018-08-14 15:53 66 66 - 100 100° 3 - 29.89 - 0 BR OVC002 None
2018-08-14 15:46 66 66 - 100 110° 5 - 29.89 - 1 BR OVC002 Variable visibility
2018-08-14 15:33 66 66 - 100 110° 6 - 29.90 - 2 BR OVC002 Variable visibility
2018-08-14 15:28 66 66 - 100 110° 3 - 29.90 - 1 BR OVC002 Variable visibility
2018-08-14 14:56 67 67 - 100 120° 5 - 29.90 29.90 0 FG OVC002 None
2018-08-14 14:52 66 66 - 100 110° 5 - 29.90 - 0 FG OVC002 None
2018-08-14 14:46 66 66 - 100 100° 3 - 29.90 - 1 BR OVC002 None
2018-08-14 14:33 66 66 - 100 80° 5 - 29.91 - 2 BR OVC002 Variable visibility
2018-08-14 13:56 67 67 - 100 100° 6 - 29.92 29.92 2 BR OVC004 1-hr Precip Total: Trace
6-hr Precip Total (2pm): 0.18"
6-hr Min Temp (2pm): 66.0°F
6-hr Max Temp (2pm): 68.0°F
2018-08-14 13:41 68 68 - 100 90° 5 - 29.92 - 3 -RA BR OVC004 1-hr Precip Total: Trace
2018-08-14 12:44 66 66 - 100 80° 3 - 29.93 - 3 BR OVC002 None
2018-08-14 12:03 66 66 - 100 Variable 3 - 29.93 - 1 BR OVC002 Variable visibility
2018-08-14 11:56 67 67 - 100 60° 6 - 29.93 29.94 6 BR OVC002 None
2018-08-14 10:56 66 66 - 100 Variable 5 - 29.95 29.95 10 OVC004 1-hr Precip Total: 0.10"
6-hr Precip Total (11am): 0.18"
2018-08-14 10:33 66 66 - 100 70° 5 - 29.95 - 5 BR BKN002 OVC015 1-hr Precip Total: 0.10"
2018-08-14 10:20 66 66 - 100 60° 7 - 29.95 - 2 -RA BR BKN002 OVC015 1-hr Precip Total: 0.10"
2018-08-14 10:14 66 66 - 100 60° 9 - 29.94 - 1 +RA BR OVC002 Variable visibility
1-hr Precip Total: 0.09"
2018-08-14 09:56 66 66 - 100 70° 3 - 29.95 29.96 2 -RA BR OVC002 Variable visibility
1-hr Precip Total: 0.08"
2018-08-14 09:51 66 66 - 100 80° 5 - 29.96 - 1 +RA BR OVC002 Variable visibility
1-hr Precip Total: 0.08"
2018-08-14 09:33 66 66 - 100 - Calm - 29.96 - 3 -RA BR OVC002 1-hr Precip Total: 0.01"
2018-08-14 09:20 66 66 - 100 60° 5 - 29.96 - 1 -RA BR OVC002 1-hr Precip Total: Trace
2018-08-14 08:56 66 66 - 100 50° 3 - 29.96 29.96 1 BR OVC002 None
2018-08-14 08:33 66 66 - 100 Variable 3 - 29.96 - 1 BR OVC002 None
2018-08-14 08:22 66 66 - 100 Variable 5 - 29.96 - 4 BR OVC002 None
2018-08-14 07:56 66 66 - 100 50° 6 - 29.95 29.96 2 BR OVC002 1-hr Precip Total: Trace
6-hr Precip Total (8am): 0.00"
6-hr Min Temp (8am): 64.9°F
6-hr Max Temp (8am): 66.0°F
2018-08-14 07:52 66 66 - 100 40° 5 - 29.95 - 2 BR OVC002 1-hr Precip Total: Trace
2018-08-14 07:43 66 66 - 100 50° 6 - 29.96 - 1 -RA BR OVC002 1-hr Precip Total: Trace
2018-08-14 07:22 66 66 - 100 60° 7 - 29.95 - 0 FG OVC002 None
2018-08-14 07:09 66 66 - 100 60° 7 - 29.95 - 0 BR OVC002 None
2018-08-14 06:56 66 66 - 100 50° 6 - 29.95 29.96 0 FG OVC002 None
2018-08-14 06:18 66 66 - 100 40° 6 - 29.95 - 0 BR OVC002 None
2018-08-14 05:56 65 65 - 100 50° 5 - 29.95 29.95 0 FG OVC002 None
2018-08-14 05:51 64 64 - 100 40° 6 - 29.95 - 0 FG OVC002 None
2018-08-14 04:56 65 65 - 100 50° 7 - 29.96 29.96 0 FG OVC002 6-hr Precip Total (5am): 0.00"

Support USWX by starting your Amazon purchase here.